createdAt,value
2019-04-05T00:00:14.139Z,8.70
2019-04-05T00:03:01.198Z,8.80
2019-04-05T00:05:47.511Z,8.70
2019-04-05T00:08:33.329Z,8.70
2019-04-05T00:11:19.046Z,8.80
2019-04-05T00:14:05.574Z,8.80
2019-04-05T00:16:53.619Z,8.80
2019-04-05T00:19:39.518Z,8.80
2019-04-05T00:22:25.331Z,8.90
2019-04-05T00:25:11.607Z,8.90
2019-04-05T00:27:57.494Z,9.00
2019-04-05T00:30:43.314Z,9.00
2019-04-05T00:33:29.088Z,9.10
2019-04-05T00:36:15.043Z,9.10
2019-04-05T00:39:01.211Z,9.20
2019-04-05T00:41:49.077Z,9.30
2019-04-05T00:44:35.499Z,9.20
2019-04-05T00:47:21.719Z,9.20
2019-04-05T00:50:08.071Z,9.20
2019-04-05T00:52:54.475Z,9.20
2019-04-05T00:55:40.748Z,9.20
2019-04-05T00:58:26.660Z,9.10
2019-04-05T01:01:12.508Z,9.10
2019-04-05T01:03:58.739Z,9.00
2019-04-05T01:06:44.662Z,9.00
2019-04-05T01:09:31.880Z,8.90
2019-04-05T01:12:20.084Z,9.00
2019-04-05T01:15:08.307Z,9.00
2019-04-05T01:17:54.623Z,9.00
2019-04-05T01:20:44.421Z,9.00
2019-04-05T01:23:31.126Z,8.90
2019-04-05T01:26:18.275Z,8.90
2019-04-05T01:29:04.256Z,8.80
2019-04-05T01:31:50.642Z,8.80
2019-04-05T01:34:36.835Z,8.70
2019-04-05T01:37:23.571Z,8.80
2019-04-05T01:40:09.851Z,8.80
2019-04-05T01:42:56.558Z,8.80
2019-04-05T01:45:53.007Z,8.70
2019-04-05T01:48:31.066Z,8.70
2019-04-05T01:51:17.964Z,8.60
2019-04-05T01:54:04.182Z,8.60
2019-04-05T01:56:50.024Z,8.50
2019-04-05T01:59:36.917Z,8.40
2019-04-05T02:02:22.718Z,8.30
2019-04-05T02:05:09.178Z,8.30
2019-04-05T02:07:55.576Z,8.20
2019-04-05T02:10:41.879Z,8.30
2019-04-05T02:13:28.067Z,8.20
2019-04-05T02:16:14.488Z,8.30
2019-04-05T02:19:00.651Z,8.40
2019-04-05T02:21:47.095Z,8.30
2019-04-05T02:24:33.358Z,8.40
2019-04-05T02:27:19.718Z,8.50
2019-04-05T02:30:05.761Z,8.50
2019-04-05T02:32:51.803Z,8.50
2019-04-05T02:35:39.174Z,8.50
2019-04-05T02:38:25.805Z,8.50
2019-04-05T02:41:12.151Z,8.60
2019-04-05T02:43:59.644Z,8.60
2019-04-05T02:46:46.095Z,8.60
2019-04-05T02:49:33.732Z,8.70
2019-04-05T02:52:21.656Z,8.70
2019-04-05T02:55:07.799Z,8.80
2019-04-05T02:57:55.387Z,8.80
2019-04-05T03:00:42.333Z,8.90
2019-04-05T03:03:28.208Z,8.90
2019-04-05T03:06:14.580Z,8.80
2019-04-05T03:09:01.968Z,8.80
2019-04-05T03:11:50.337Z,8.80
2019-04-05T03:14:37.333Z,8.80
2019-04-05T03:17:23.835Z,8.80
2019-04-05T03:20:10.035Z,8.70
2019-04-05T03:22:56.641Z,8.70
2019-04-05T03:25:42.861Z,8.70
2019-04-05T03:28:30.887Z,8.70
2019-04-05T03:31:23.977Z,8.70
2019-04-05T03:34:06.008Z,8.70
2019-04-05T03:36:52.155Z,8.80
2019-04-05T03:39:39.119Z,8.90
2019-04-05T03:42:25.367Z,8.90
2019-04-05T03:45:11.275Z,8.80
2019-04-05T03:47:57.893Z,8.80
2019-04-05T03:50:45.231Z,8.90
2019-04-05T03:53:32.797Z,8.80
2019-04-05T03:56:19.075Z,8.80
2019-04-05T03:59:05.228Z,8.80
2019-04-05T04:01:51.447Z,8.80
2019-04-05T04:04:38.280Z,8.70
2019-04-05T04:07:24.453Z,8.70
2019-04-05T04:10:16.000Z,8.70
2019-04-05T04:13:02.380Z,8.80
2019-04-05T04:15:49.628Z,8.80
2019-04-05T04:18:35.856Z,8.70
2019-04-05T04:21:34.586Z,8.70
2019-04-05T04:24:20.883Z,8.80
2019-04-05T04:27:07.196Z,8.70
2019-04-05T04:29:53.311Z,8.70
2019-04-05T04:32:39.452Z,8.60
2019-04-05T04:35:25.710Z,8.60
2019-04-05T04:38:11.948Z,8.60
2019-04-05T04:40:59.458Z,8.60
2019-04-05T04:43:45.863Z,8.50
2019-04-05T04:46:32.571Z,8.50
2019-04-05T04:49:18.785Z,8.60
2019-04-05T04:52:05.065Z,8.60
2019-04-05T04:54:51.838Z,8.60
2019-04-05T04:57:38.060Z,8.70
2019-04-05T05:00:23.860Z,8.70
2019-04-05T05:03:10.356Z,8.70
2019-04-05T05:05:56.326Z,8.80
2019-04-05T05:08:42.423Z,8.80
2019-04-05T05:11:28.588Z,8.80
2019-04-05T05:14:14.674Z,8.70
2019-04-05T05:17:00.946Z,8.80
2019-04-05T05:19:47.563Z,8.90
2019-04-05T05:22:33.515Z,8.90
2019-04-05T05:25:19.819Z,8.80
2019-04-05T05:28:05.804Z,8.90
2019-04-05T05:30:51.819Z,8.90
2019-04-05T05:33:37.940Z,8.90
2019-04-05T05:36:25.311Z,8.90
2019-04-05T05:39:11.019Z,8.90
2019-04-05T05:41:57.562Z,8.90
2019-04-05T05:44:43.499Z,9.00
2019-04-05T05:47:29.750Z,8.90
2019-04-05T05:50:15.564Z,8.90
2019-04-05T05:53:01.980Z,8.90
2019-04-05T05:55:48.183Z,8.90
2019-04-05T05:58:34.481Z,8.80
2019-04-05T06:01:20.226Z,8.90
2019-04-05T06:04:06.191Z,9.00
2019-04-05T06:06:52.464Z,9.10
2019-04-05T06:09:38.695Z,9.10
2019-04-05T06:12:24.684Z,9.10
2019-04-05T06:15:10.851Z,9.10
2019-04-05T06:18:04.544Z,9.10
2019-04-05T06:20:44.619Z,9.10
2019-04-05T06:23:33.974Z,9.10
2019-04-05T06:26:18.172Z,9.10
2019-04-05T06:29:04.015Z,9.20
2019-04-05T06:31:50.284Z,9.30
2019-04-05T06:34:36.306Z,9.30
2019-04-05T06:37:22.672Z,9.40
2019-04-05T06:40:09.679Z,9.50
2019-04-05T06:42:55.857Z,9.50
2019-04-05T06:45:42.097Z,9.60
2019-04-05T06:48:29.477Z,9.60
2019-04-05T06:51:15.730Z,9.70
2019-04-05T06:54:03.383Z,9.70
2019-04-05T06:56:49.248Z,9.80
2019-04-05T06:59:35.115Z,9.90
2019-04-05T07:02:21.280Z,9.90
2019-04-05T07:05:07.338Z,9.90
2019-04-05T07:07:53.526Z,9.80
2019-04-05T07:10:39.744Z,9.90
2019-04-05T07:13:27.399Z,9.90
2019-04-05T07:16:13.558Z,10.00
2019-04-05T07:18:59.363Z,10.10
2019-04-05T07:21:45.223Z,10.10
2019-04-05T07:24:31.080Z,10.10
2019-04-05T07:27:17.275Z,10.20
2019-04-05T07:30:03.648Z,10.30
2019-04-05T07:32:49.896Z,10.30
2019-04-05T07:35:35.611Z,10.40
2019-04-05T07:38:22.063Z,10.40
2019-04-05T07:41:08.296Z,10.50
2019-04-05T07:43:54.099Z,10.50
2019-04-05T07:46:39.955Z,10.50
2019-04-05T07:49:26.187Z,10.60
2019-04-05T07:52:13.166Z,10.60
2019-04-05T07:54:59.190Z,10.60
2019-04-05T07:57:46.087Z,10.70
2019-04-05T08:00:58.228Z,10.80
2019-04-05T08:03:44.319Z,10.90
2019-04-05T08:06:31.070Z,10.90
2019-04-05T08:09:17.867Z,11.00
2019-04-05T08:12:04.007Z,11.00
2019-04-05T08:14:50.229Z,11.10
2019-04-05T08:17:36.382Z,11.20
2019-04-05T08:20:25.161Z,11.30
2019-04-05T08:23:10.335Z,11.40
2019-04-05T08:25:56.506Z,11.40
2019-04-05T08:28:42.748Z,11.60
2019-04-05T08:31:28.756Z,11.60
2019-04-05T08:34:14.967Z,11.60
2019-04-05T08:37:00.840Z,11.50
2019-04-05T08:39:47.060Z,11.50
2019-04-05T08:42:32.867Z,11.40
2019-04-05T08:45:18.871Z,11.40
2019-04-05T08:48:05.023Z,11.50
2019-04-05T08:50:51.190Z,11.70
2019-04-05T08:53:38.119Z,11.90
2019-04-05T08:56:24.375Z,11.90
2019-04-05T08:59:10.675Z,12.00
2019-04-05T09:01:57.113Z,12.20
2019-04-05T09:04:43.340Z,12.30
2019-04-05T09:07:29.632Z,12.40
2019-04-05T09:10:16.035Z,12.50
2019-04-05T09:13:02.325Z,12.50
2019-04-05T09:15:48.179Z,12.60
2019-04-05T09:18:34.483Z,12.70
2019-04-05T09:21:20.792Z,12.90
2019-04-05T09:24:06.672Z,13.00
2019-04-05T09:26:54.309Z,13.10
2019-04-05T09:29:40.185Z,13.10
2019-04-05T09:32:26.225Z,13.40
2019-04-05T09:35:12.543Z,13.70
2019-04-05T09:37:58.381Z,13.90
2019-04-05T09:40:44.866Z,13.80
2019-04-05T09:43:30.719Z,14.10
2019-04-05T09:46:16.572Z,14.30
2019-04-05T09:49:02.883Z,14.60
2019-04-05T09:51:49.084Z,14.60
2019-04-05T09:54:34.979Z,14.70
2019-04-05T09:57:21.325Z,14.90
2019-04-05T10:00:13.039Z,15.00
2019-04-05T10:02:59.311Z,15.00
2019-04-05T10:05:45.286Z,15.00
2019-04-05T10:08:31.630Z,15.00
2019-04-05T10:11:17.865Z,15.00
2019-04-05T10:14:03.862Z,15.10
2019-04-05T10:16:49.988Z,15.30
2019-04-05T10:19:48.884Z,15.40
2019-04-05T10:22:23.778Z,15.60
2019-04-05T10:25:10.255Z,15.70
2019-04-05T10:27:56.439Z,15.80
2019-04-05T10:30:42.778Z,16.00
2019-04-05T10:33:28.564Z,15.90
2019-04-05T10:36:14.392Z,16.20
2019-04-05T10:39:00.084Z,16.40
2019-04-05T10:41:46.268Z,16.40
2019-04-05T10:44:32.244Z,16.50
2019-04-05T10:47:18.352Z,16.70
2019-04-05T10:50:07.411Z,16.80
2019-04-05T10:52:53.727Z,17.10
2019-04-05T10:55:39.503Z,17.10
2019-04-05T10:58:25.899Z,17.20
2019-04-05T11:01:12.396Z,17.10
2019-04-05T11:03:58.284Z,17.20
2019-04-05T11:06:44.099Z,17.30
2019-04-05T11:09:30.547Z,17.20
2019-04-05T11:12:16.579Z,17.20
2019-04-05T11:15:02.870Z,17.30
2019-04-05T11:17:50.339Z,17.20
2019-04-05T11:20:36.665Z,17.10
2019-04-05T11:23:22.551Z,17.50
2019-04-05T11:26:08.794Z,17.90
2019-04-05T11:28:54.968Z,18.20
2019-04-05T11:31:41.382Z,17.70
2019-04-05T11:34:27.163Z,17.70
2019-04-05T11:37:13.522Z,17.70
2019-04-05T11:39:59.959Z,17.90
2019-04-05T11:42:47.184Z,18.10
2019-04-05T11:45:33.059Z,18.10
2019-04-05T11:48:19.453Z,18.20
2019-04-05T11:51:05.632Z,18.10
2019-04-05T11:53:51.534Z,18.00
2019-04-05T11:56:37.839Z,17.80
2019-04-05T11:59:24.075Z,17.80
2019-04-05T12:02:35.547Z,18.00
2019-04-05T12:05:22.948Z,18.00
2019-04-05T12:08:09.489Z,18.00
2019-04-05T12:10:55.795Z,18.00
2019-04-05T12:13:42.967Z,18.00
2019-04-05T12:16:29.363Z,17.70
2019-04-05T12:19:15.111Z,17.90
2019-04-05T12:22:04.518Z,18.10
2019-04-05T12:24:48.855Z,18.00
2019-04-05T12:27:35.102Z,18.20
2019-04-05T12:30:21.824Z,18.20
2019-04-05T12:33:14.367Z,18.20
2019-04-05T12:35:56.597Z,18.40
2019-04-05T12:38:42.719Z,18.60
2019-04-05T12:41:28.621Z,18.50
2019-04-05T12:44:15.578Z,18.40
2019-04-05T12:47:01.538Z,18.20
2019-04-05T12:49:47.915Z,18.10
2019-04-05T12:52:33.839Z,18.20
2019-04-05T12:55:23.841Z,18.10
2019-04-05T12:58:09.977Z,18.10
2019-04-05T13:00:56.897Z,18.10
2019-04-05T13:03:43.147Z,18.10
2019-04-05T13:06:29.008Z,18.10
2019-04-05T13:09:14.761Z,17.90
2019-04-05T13:12:01.043Z,17.70
2019-04-05T13:14:46.939Z,17.70
2019-04-05T13:17:33.192Z,17.70
2019-04-05T13:20:19.003Z,17.70
2019-04-05T13:23:06.699Z,17.60
2019-04-05T13:25:52.715Z,17.50
2019-04-05T13:28:40.161Z,17.50
2019-04-05T13:31:26.519Z,17.50
2019-04-05T13:34:12.791Z,17.40
2019-04-05T13:37:00.999Z,17.30
2019-04-05T13:39:46.903Z,17.20
2019-04-05T13:42:35.323Z,17.20
2019-04-05T13:45:20.711Z,17.30
2019-04-05T13:48:09.016Z,17.50
2019-04-05T13:50:54.275Z,17.60
2019-04-05T13:53:40.553Z,17.60
2019-04-05T13:56:27.495Z,17.70
2019-04-05T13:59:13.850Z,17.60
2019-04-05T14:02:06.015Z,17.60
2019-04-05T14:04:49.017Z,17.70
2019-04-05T14:07:35.399Z,17.90
2019-04-05T14:10:21.508Z,18.10
2019-04-05T14:13:09.580Z,18.20
2019-04-05T14:15:55.380Z,18.00
2019-04-05T14:18:45.728Z,17.90
2019-04-05T14:21:39.912Z,17.70
2019-04-05T14:24:17.378Z,17.80
2019-04-05T14:27:04.226Z,18.00
2019-04-05T14:29:50.175Z,18.20
2019-04-05T14:32:36.003Z,18.30
2019-04-05T14:35:24.384Z,18.40
2019-04-05T14:38:11.728Z,18.30
2019-04-05T14:40:58.103Z,18.00
2019-04-05T14:43:45.037Z,17.70
2019-04-05T14:46:31.331Z,17.70
2019-04-05T14:49:17.630Z,17.60
2019-04-05T14:52:03.923Z,17.80
2019-04-05T14:54:50.174Z,18.00
2019-04-05T14:57:36.724Z,18.00
2019-04-05T15:00:22.783Z,18.00
2019-04-05T15:03:09.091Z,17.70
2019-04-05T15:05:54.951Z,17.60
2019-04-05T15:08:41.087Z,17.40
2019-04-05T15:11:29.512Z,17.40
2019-04-05T15:14:15.484Z,17.30
2019-04-05T15:17:01.658Z,17.20
2019-04-05T15:19:48.171Z,17.10
2019-04-05T15:22:34.507Z,16.90
2019-04-05T15:25:21.836Z,16.90
2019-04-05T15:28:08.135Z,17.10
2019-04-05T15:30:56.141Z,17.20
2019-04-05T15:33:42.063Z,17.10
2019-04-05T15:36:29.396Z,17.20
2019-04-05T15:40:13.751Z,17.20
2019-04-05T15:43:06.760Z,17.10
2019-04-05T15:45:52.542Z,16.50
2019-04-05T15:48:38.815Z,16.30
2019-04-05T15:51:24.981Z,16.20
2019-04-05T15:54:11.044Z,16.10
2019-04-05T15:56:56.838Z,15.90
2019-04-05T15:59:45.136Z,15.70
2019-04-05T16:02:33.006Z,15.60
2019-04-05T16:05:19.454Z,15.60
2019-04-05T16:08:05.894Z,15.60
2019-04-05T16:10:53.400Z,15.50
2019-04-05T16:13:39.779Z,15.50
2019-04-05T16:16:26.593Z,15.40
2019-04-05T16:19:12.781Z,15.40
2019-04-05T16:21:58.835Z,15.40
2019-04-05T16:24:45.303Z,15.30
2019-04-05T16:27:31.468Z,15.20
2019-04-05T16:30:17.359Z,15.20
2019-04-05T16:33:03.758Z,15.10
2019-04-05T16:35:50.270Z,15.10
2019-04-05T16:38:36.460Z,15.00
2019-04-05T16:41:22.539Z,15.00
2019-04-05T16:44:08.815Z,14.90
2019-04-05T16:46:54.693Z,15.00
2019-04-05T16:49:41.000Z,14.90
2019-04-05T16:52:27.450Z,14.80
2019-04-05T16:55:14.732Z,14.70
2019-04-05T16:58:01.054Z,14.80
2019-04-05T17:00:48.550Z,14.80
2019-04-05T17:03:34.579Z,14.70
2019-04-05T17:06:20.873Z,14.80
2019-04-05T17:09:08.559Z,14.70
2019-04-05T17:11:55.111Z,14.60
2019-04-05T17:14:41.346Z,14.60
2019-04-05T17:17:27.674Z,14.60
2019-04-05T17:20:13.569Z,14.60
2019-04-05T17:22:59.888Z,14.60
2019-04-05T17:25:46.132Z,14.50
2019-04-05T17:28:32.324Z,14.40
2019-04-05T17:31:18.249Z,14.40
2019-04-05T17:34:05.556Z,14.40
2019-04-05T17:36:51.730Z,14.30
2019-04-05T17:39:38.143Z,14.30
2019-04-05T17:42:23.996Z,14.20
2019-04-05T17:45:10.519Z,14.10
2019-04-05T17:47:56.788Z,14.00
2019-04-05T17:50:43.087Z,14.00
2019-04-05T17:53:28.931Z,13.90
2019-04-05T17:56:15.514Z,13.80
2019-04-05T17:59:02.355Z,13.80
2019-04-05T18:01:48.336Z,13.80
2019-04-05T18:04:34.202Z,13.70
2019-04-05T18:07:20.399Z,13.70
2019-04-05T18:10:06.812Z,13.60
2019-04-05T18:12:53.214Z,13.60
2019-04-05T18:15:51.649Z,13.50
2019-04-05T18:18:27.262Z,13.50
2019-04-05T18:21:14.466Z,13.40
2019-04-05T18:24:01.568Z,13.40
2019-04-05T18:26:47.731Z,13.40
2019-04-05T18:29:33.983Z,13.30
2019-04-05T18:32:20.705Z,13.20
2019-04-05T18:35:07.390Z,13.20
2019-04-05T18:37:53.620Z,13.10
2019-04-05T18:40:40.537Z,13.10
2019-04-05T18:43:28.869Z,13.00
2019-04-05T18:46:15.198Z,13.00
2019-04-05T18:49:03.140Z,12.90
2019-04-05T18:51:49.414Z,12.80
2019-04-05T18:54:35.691Z,12.70
2019-04-05T18:57:21.948Z,12.70
2019-04-05T19:00:08.130Z,12.70
2019-04-05T19:02:54.123Z,12.70
2019-04-05T19:05:39.823Z,12.80
2019-04-05T19:08:38.487Z,12.80
2019-04-05T19:11:13.565Z,12.70
2019-04-05T19:14:01.219Z,12.70
2019-04-05T19:16:47.224Z,12.70
2019-04-05T19:19:33.482Z,12.70
2019-04-05T19:22:19.346Z,12.60
2019-04-05T19:25:05.869Z,12.60
2019-04-05T19:27:51.942Z,12.60
2019-04-05T19:50:18.752Z,12.30
2019-04-05T19:53:05.294Z,12.30
2019-04-05T19:55:52.365Z,12.20
2019-04-05T19:58:38.691Z,12.10
2019-04-05T20:01:24.719Z,12.00
2019-04-05T20:04:11.009Z,11.90
2019-04-05T20:06:58.566Z,11.90
2019-04-05T20:09:44.671Z,11.80
2019-04-05T20:12:30.474Z,11.80
2019-04-05T20:15:16.687Z,11.70
2019-04-05T20:18:03.000Z,11.60
2019-04-05T20:20:49.338Z,11.50
2019-04-05T20:23:35.615Z,11.40
2019-04-05T20:26:22.109Z,11.40
2019-04-05T20:29:08.823Z,11.30
2019-04-05T20:31:54.563Z,11.20
2019-04-05T20:34:40.433Z,11.10
2019-04-05T20:37:27.340Z,11.10
2019-04-05T20:40:13.630Z,10.90
2019-04-05T20:43:00.100Z,10.90
2019-04-05T20:45:46.636Z,10.80
2019-04-05T20:48:32.828Z,10.80
2019-04-05T20:51:19.104Z,10.80
2019-04-05T20:54:05.091Z,10.70
2019-04-05T20:56:51.489Z,10.60
2019-04-05T20:59:37.998Z,10.60
2019-04-05T21:02:24.115Z,10.60
2019-04-05T21:05:10.420Z,10.50
2019-04-05T21:07:57.158Z,10.50
2019-04-05T21:10:45.692Z,10.50
2019-04-05T21:13:31.759Z,10.40
2019-04-05T21:16:17.583Z,10.40
2019-04-05T21:19:06.364Z,10.40
2019-04-05T21:21:52.715Z,10.40
2019-04-05T21:24:38.885Z,10.30
2019-04-05T21:27:27.609Z,10.30
2019-04-05T21:30:14.816Z,10.20
2019-04-05T21:33:00.838Z,10.10
2019-04-05T21:35:47.273Z,10.10
2019-04-05T21:38:34.613Z,10.10
2019-04-05T21:41:20.790Z,10.10
2019-04-05T21:44:07.223Z,10.00
2019-04-05T21:46:53.457Z,9.90
2019-04-05T21:49:39.355Z,9.90
2019-04-05T21:52:25.594Z,9.80
2019-04-05T21:55:11.685Z,9.70
2019-04-05T21:57:57.995Z,9.70
2019-04-05T22:00:51.855Z,9.60
2019-04-05T22:03:42.863Z,9.60
2019-04-05T22:06:29.147Z,9.60
2019-04-05T22:09:15.155Z,9.50
2019-04-05T22:12:01.567Z,9.50
2019-04-05T22:14:47.734Z,9.40
2019-04-05T22:17:33.951Z,9.40
2019-04-05T22:20:20.312Z,9.20
2019-04-05T22:23:06.492Z,9.20
2019-04-05T22:25:52.287Z,9.20
2019-04-05T22:28:38.544Z,9.10
2019-04-05T22:31:24.308Z,9.10
2019-04-05T22:34:10.239Z,9.10
2019-04-05T22:36:56.410Z,9.10
2019-04-05T22:39:42.287Z,9.00
2019-04-05T22:42:28.167Z,8.90
2019-04-05T22:45:14.420Z,8.90
2019-04-05T22:48:00.252Z,8.80
2019-04-05T22:50:46.799Z,8.70
2019-04-05T22:53:33.017Z,8.70
2019-04-05T22:56:19.477Z,8.60
2019-04-05T22:59:05.807Z,8.60
2019-04-05T23:01:52.067Z,8.60
2019-04-05T23:04:37.947Z,8.60
2019-04-05T23:07:24.199Z,8.60
2019-04-05T23:10:10.105Z,8.50
2019-04-05T23:12:56.471Z,8.50
2019-04-05T23:15:42.642Z,8.50
2019-04-05T23:18:28.399Z,8.40
2019-04-05T23:21:14.759Z,8.20
2019-04-05T23:24:01.170Z,8.20
2019-04-05T23:26:48.156Z,8.20
2019-04-05T23:29:34.582Z,8.10
2019-04-05T23:32:20.803Z,8.00
2019-04-05T23:35:06.802Z,7.90
2019-04-05T23:37:52.879Z,7.70
2019-04-05T23:40:39.238Z,7.60
2019-04-05T23:43:24.988Z,7.50
2019-04-05T23:46:11.252Z,7.50
2019-04-05T23:48:57.506Z,7.50
2019-04-05T23:51:44.071Z,7.50
2019-04-05T23:54:30.276Z,7.60
2019-04-05T23:57:16.585Z,7.60
